createdAt,value
2018-05-23T00:00:08.060Z,7.80
2018-05-23T00:02:34.266Z,7.80
2018-05-23T00:05:00.434Z,7.80
2018-05-23T00:07:26.620Z,7.70
2018-05-23T00:09:53.539Z,7.60
2018-05-23T00:12:19.725Z,7.60
2018-05-23T00:14:45.923Z,7.70
2018-05-23T00:17:12.836Z,7.60
2018-05-23T00:19:39.032Z,7.50
2018-05-23T00:22:05.214Z,7.50
2018-05-23T00:24:31.589Z,7.40
2018-05-23T00:26:58.484Z,7.40
2018-05-23T00:29:24.650Z,7.40
2018-05-23T00:31:50.828Z,7.40
2018-05-23T00:34:17.002Z,7.40
2018-05-23T00:36:43.206Z,7.40
2018-05-23T00:39:09.378Z,7.40
2018-05-23T00:41:35.561Z,7.30
2018-05-23T00:44:01.763Z,7.30
2018-05-23T00:46:28.681Z,7.10
2018-05-23T00:48:54.905Z,7.10
2018-05-23T00:51:21.085Z,7.10
2018-05-23T00:53:47.997Z,7.00
2018-05-23T00:56:14.180Z,6.90
2018-05-23T00:58:40.349Z,7.00
2018-05-23T01:01:06.567Z,6.90
2018-05-23T01:03:32.741Z,6.90
2018-05-23T01:05:58.937Z,6.80
2018-05-23T01:08:25.142Z,6.70
2018-05-23T01:10:51.306Z,6.60
2018-05-23T01:13:17.517Z,6.60
2018-05-23T01:15:43.717Z,6.50
2018-05-23T01:18:10.633Z,6.30
2018-05-23T01:20:36.822Z,6.20
2018-05-23T01:23:03.009Z,6.20
2018-05-23T01:25:29.214Z,6.20
2018-05-23T01:27:55.510Z,6.20
2018-05-23T01:30:29.432Z,6.00
2018-05-23T01:32:55.614Z,6.00
2018-05-23T01:35:21.801Z,6.00
2018-05-23T01:37:48.005Z,5.90
2018-05-23T01:40:14.912Z,5.70
2018-05-23T01:42:41.077Z,5.70
2018-05-23T01:45:08.005Z,5.70
2018-05-23T01:47:34.174Z,5.60
2018-05-23T01:50:01.322Z,5.60
2018-05-23T01:52:28.243Z,5.50
2018-05-23T01:54:54.421Z,5.50
2018-05-23T01:57:20.637Z,5.50
2018-05-23T01:59:47.549Z,5.50
2018-05-23T02:02:13.782Z,5.40
2018-05-23T02:04:39.959Z,5.40
2018-05-23T02:07:06.882Z,5.20
2018-05-23T02:09:33.068Z,5.10
2018-05-23T02:11:59.242Z,5.10
2018-05-23T02:14:25.444Z,5.10
2018-05-23T02:16:51.662Z,5.10
2018-05-23T02:19:17.833Z,5.10
2018-05-23T02:21:43.998Z,5.00
2018-05-23T02:24:10.936Z,4.90
2018-05-23T02:26:37.109Z,4.90
2018-05-23T02:29:03.291Z,4.90
2018-05-23T02:31:29.473Z,4.90
2018-05-23T02:33:55.653Z,4.90
2018-05-23T02:36:21.862Z,4.80
2018-05-23T02:38:48.030Z,4.90
2018-05-23T02:41:14.210Z,4.80
2018-05-23T02:43:40.398Z,4.80
2018-05-23T02:46:07.337Z,4.80
2018-05-23T02:48:33.530Z,4.70
2018-05-23T02:50:59.718Z,4.90
2018-05-23T02:53:26.647Z,4.90
2018-05-23T02:55:52.832Z,4.80
2018-05-23T02:58:19.015Z,4.90
2018-05-23T03:00:45.965Z,4.90
2018-05-23T03:03:12.873Z,5.00
2018-05-23T03:05:39.049Z,4.90
2018-05-23T03:08:06.973Z,5.10
2018-05-23T03:10:33.170Z,5.00
2018-05-23T03:13:00.122Z,5.30
2018-05-23T03:15:27.033Z,5.30
2018-05-23T03:17:53.210Z,5.30
2018-05-23T03:20:20.136Z,5.80
2018-05-23T03:22:47.041Z,6.30
2018-05-23T03:25:13.266Z,6.30
2018-05-23T03:27:39.444Z,6.80
2018-05-23T03:30:05.617Z,7.50
2018-05-23T03:32:32.550Z,9.60
2018-05-23T03:34:59.452Z,10.30
2018-05-23T03:37:25.633Z,10.30
2018-05-23T03:39:52.542Z,12.10
2018-05-23T03:42:18.718Z,12.00
2018-05-23T03:44:45.645Z,13.70
2018-05-23T03:47:11.835Z,13.60
2018-05-23T03:49:38.034Z,14.90
2018-05-23T03:52:04.960Z,16.70
2018-05-23T03:54:31.150Z,16.70
2018-05-23T03:56:57.333Z,17.60
2018-05-23T03:59:35.975Z,17.50
2018-05-23T04:05:16.032Z,17.90
2018-05-23T04:07:42.200Z,18.90
2018-05-23T04:10:08.376Z,20.00
2018-05-23T04:12:35.317Z,21.50
2018-05-23T04:15:01.488Z,21.50
2018-05-23T04:17:27.665Z,21.90
2018-05-23T04:19:53.843Z,22.10
2018-05-23T04:22:20.006Z,22.00
2018-05-23T04:24:46.280Z,22.60
2018-05-23T04:27:13.083Z,23.20
2018-05-23T04:29:39.268Z,23.50
2018-05-23T04:32:06.194Z,23.20
2018-05-23T04:34:32.381Z,23.10
2018-05-23T04:36:58.800Z,23.10
2018-05-23T04:39:25.730Z,23.80
2018-05-23T04:41:51.922Z,23.80
2018-05-23T04:44:18.105Z,24.90
2018-05-23T04:46:45.026Z,26.70
2018-05-23T04:49:11.213Z,26.60
2018-05-23T04:51:37.388Z,27.30
2018-05-23T04:54:03.575Z,27.90
2018-05-23T04:56:29.742Z,28.40
2018-05-23T04:58:55.914Z,28.70
2018-05-23T05:01:22.849Z,29.50
2018-05-23T05:03:49.027Z,29.40
2018-05-23T05:06:15.206Z,28.80
2018-05-23T05:08:41.389Z,27.10
2018-05-23T05:11:07.616Z,27.10
2018-05-23T05:13:33.805Z,26.70
2018-05-23T05:15:59.985Z,25.70
2018-05-23T05:18:26.150Z,25.40
2018-05-23T05:20:52.337Z,25.90
2018-05-23T05:23:19.245Z,27.70
2018-05-23T05:25:45.441Z,27.70
2018-05-23T05:28:11.624Z,27.70
2018-05-23T05:30:37.806Z,28.30
2018-05-23T05:33:03.983Z,29.30
2018-05-23T05:35:30.164Z,29.60
2018-05-23T05:37:56.365Z,29.90
2018-05-23T05:40:23.341Z,29.90
2018-05-23T05:42:49.486Z,29.90
2018-05-23T05:45:15.665Z,29.90
2018-05-23T05:47:42.585Z,29.60
2018-05-23T05:50:08.786Z,29.50
2018-05-23T05:52:34.951Z,29.70
2018-05-23T05:55:01.135Z,29.60
2018-05-23T05:57:28.092Z,29.50
2018-05-23T05:59:55.004Z,29.50
2018-05-23T06:02:21.213Z,29.50
2018-05-23T06:04:47.406Z,29.00
2018-05-23T06:07:14.333Z,28.60
2018-05-23T06:09:40.643Z,28.60
2018-05-23T06:12:06.743Z,28.40
2018-05-23T06:14:32.948Z,28.50
2018-05-23T06:16:59.849Z,29.10
2018-05-23T06:19:26.025Z,29.10
2018-05-23T06:21:52.947Z,29.90
2018-05-23T06:24:19.118Z,29.80
2018-05-23T06:26:46.038Z,29.00
2018-05-23T06:29:12.240Z,29.00
2018-05-23T06:31:38.394Z,29.70
2018-05-23T06:34:04.577Z,30.20
2018-05-23T06:36:30.765Z,30.80
2018-05-23T06:38:56.938Z,30.10
2018-05-23T06:41:23.134Z,29.40
2018-05-23T06:43:49.330Z,28.50
2018-05-23T06:46:15.517Z,28.70
2018-05-23T06:48:42.448Z,28.30
2018-05-23T06:51:08.631Z,28.20
2018-05-23T06:53:34.834Z,26.50
2018-05-23T06:56:01.741Z,24.10
2018-05-23T06:58:27.912Z,24.10
2018-05-23T07:00:54.829Z,23.30
2018-05-23T07:03:20.996Z,23.20
2018-05-23T07:05:47.965Z,22.50
2018-05-23T07:08:14.165Z,22.30
2018-05-23T07:10:40.355Z,22.40
2018-05-23T07:13:06.542Z,22.10
2018-05-23T07:15:33.457Z,22.00
2018-05-23T07:17:59.759Z,22.00
2018-05-23T07:20:26.582Z,21.00
2018-05-23T07:22:53.509Z,20.80
2018-05-23T07:25:19.685Z,20.70
2018-05-23T07:27:45.860Z,20.60
2018-05-23T07:30:12.025Z,20.80
2018-05-23T07:32:38.946Z,20.70
2018-05-23T07:35:05.144Z,20.70
2018-05-23T07:37:31.422Z,20.80
2018-05-23T07:39:57.593Z,20.80
2018-05-23T07:42:23.769Z,20.80
2018-05-23T07:44:49.946Z,20.80
2018-05-23T07:47:16.885Z,21.00
2018-05-23T07:49:43.793Z,21.20
2018-05-23T07:52:10.009Z,21.10
2018-05-23T07:54:36.178Z,21.20
2018-05-23T07:57:02.373Z,21.20
2018-05-23T07:59:28.541Z,21.20
2018-05-23T08:01:55.726Z,21.50
2018-05-23T08:04:22.653Z,21.50
2018-05-23T08:06:49.584Z,21.60
2018-05-23T08:09:15.784Z,21.50
2018-05-23T08:11:41.953Z,21.50
2018-05-23T08:14:08.148Z,21.50
2018-05-23T08:16:34.344Z,21.60
2018-05-23T08:19:01.253Z,21.70
2018-05-23T08:21:27.433Z,21.60
2018-05-23T08:23:54.353Z,21.80
2018-05-23T08:26:20.549Z,21.70
2018-05-23T08:28:46.746Z,21.80
2018-05-23T08:31:13.674Z,21.90
2018-05-23T08:33:39.849Z,21.80
2018-05-23T08:36:06.047Z,21.80
2018-05-23T08:38:32.968Z,21.90
2018-05-23T08:40:59.225Z,21.80
2018-05-23T08:43:25.371Z,22.00
2018-05-23T08:45:52.330Z,22.10
2018-05-23T08:48:18.494Z,22.00
2018-05-23T08:50:44.661Z,22.10
2018-05-23T08:53:10.851Z,22.10
2018-05-23T08:55:37.027Z,22.10
2018-05-23T08:58:03.213Z,22.20
2018-05-23T09:00:30.182Z,22.30
2018-05-23T09:02:58.313Z,22.50
2018-05-23T09:05:27.766Z,22.70
2018-05-23T09:07:56.507Z,22.70
2018-05-23T09:10:23.796Z,22.70
2018-05-23T09:12:52.586Z,22.70
2018-05-23T09:15:26.107Z,22.60
2018-05-23T09:17:58.684Z,22.70
2018-05-23T09:20:26.967Z,22.90
2018-05-23T09:22:54.121Z,22.90
2018-05-23T09:25:21.943Z,22.90
2018-05-23T09:27:49.146Z,23.00
2018-05-23T09:30:16.505Z,22.90
2018-05-23T09:32:43.864Z,23.10
2018-05-23T09:35:11.020Z,23.20
2018-05-23T09:37:38.582Z,23.10
2018-05-23T09:40:06.001Z,22.90
2018-05-23T09:42:33.813Z,23.00
2018-05-23T09:45:01.215Z,22.90
2018-05-23T09:47:28.278Z,22.90
2018-05-23T09:49:55.588Z,22.80
2018-05-23T09:52:23.020Z,22.70
2018-05-23T09:54:51.428Z,22.70
2018-05-23T09:57:19.357Z,22.80
2018-05-23T09:59:46.556Z,22.90
2018-05-23T10:02:14.428Z,22.80
2018-05-23T10:04:41.633Z,22.80
2018-05-23T10:07:13.726Z,22.80
2018-05-23T10:09:41.622Z,22.90
2018-05-23T10:12:08.782Z,22.70
2018-05-23T10:14:36.028Z,22.60
2018-05-23T10:17:02.860Z,22.30
2018-05-23T10:19:30.036Z,22.10
2018-05-23T10:21:57.088Z,22.10
2018-05-23T10:24:24.277Z,22.10
2018-05-23T10:26:51.671Z,22.20
2018-05-23T10:29:19.269Z,22.00
2018-05-23T10:31:46.321Z,22.00
2018-05-23T10:34:18.542Z,22.00
2018-05-23T10:36:45.620Z,22.10
2018-05-23T10:39:14.002Z,22.50
2018-05-23T10:41:40.978Z,22.50
2018-05-23T10:44:09.440Z,22.50
2018-05-23T10:46:36.618Z,22.50
2018-05-23T10:49:03.875Z,22.70
2018-05-23T10:51:30.824Z,22.70
2018-05-23T10:53:58.234Z,22.80
2018-05-23T10:56:28.360Z,22.90
2018-05-23T10:58:56.076Z,22.90
2018-05-23T11:01:23.301Z,23.10
2018-05-23T11:03:50.377Z,23.10
2018-05-23T11:06:18.055Z,23.20
2018-05-23T11:08:46.229Z,23.60
2018-05-23T11:11:14.382Z,23.70
2018-05-23T11:13:41.224Z,23.60
2018-05-23T11:16:09.329Z,23.50
2018-05-23T11:18:36.689Z,23.40
2018-05-23T11:21:04.124Z,22.90
2018-05-23T11:23:32.189Z,22.80
2018-05-23T11:26:00.200Z,22.80
2018-05-23T11:28:27.252Z,22.90
2018-05-23T11:30:53.671Z,23.20
2018-05-23T11:33:19.995Z,23.50
2018-05-23T11:35:46.454Z,23.70
2018-05-23T11:38:12.801Z,23.80
2018-05-23T11:40:39.043Z,24.00
2018-05-23T11:43:05.345Z,24.20
2018-05-23T11:45:31.595Z,24.60
2018-05-23T11:47:57.836Z,24.60
2018-05-23T11:50:24.122Z,25.00
2018-05-23T11:52:51.401Z,25.90
2018-05-23T11:55:18.458Z,25.90
2018-05-23T11:57:44.767Z,25.80
2018-05-23T12:00:11.803Z,25.40
2018-05-23T12:02:38.206Z,25.40
2018-05-23T12:05:04.746Z,25.20
2018-05-23T12:07:31.165Z,25.30
2018-05-23T12:09:57.505Z,24.80
2018-05-23T12:12:23.763Z,24.20
2018-05-23T12:14:49.945Z,24.10
2018-05-23T12:17:16.887Z,23.90
2018-05-23T12:19:43.984Z,23.60
2018-05-23T12:22:10.153Z,23.60
2018-05-23T12:24:37.199Z,23.40
2018-05-23T12:27:03.425Z,23.30
2018-05-23T12:29:29.657Z,23.50
2018-05-23T12:31:56.048Z,23.70
2018-05-23T12:34:22.486Z,23.90
2018-05-23T12:36:48.797Z,24.00
2018-05-23T12:39:15.168Z,24.30
2018-05-23T12:41:41.420Z,24.40
2018-05-23T12:44:07.626Z,25.10
2018-05-23T12:46:34.616Z,25.90
2018-05-23T12:49:00.885Z,25.80
2018-05-23T12:51:27.226Z,26.20
2018-05-23T12:53:54.282Z,26.40
2018-05-23T12:56:20.559Z,26.30
2018-05-23T12:58:46.845Z,26.20
2018-05-23T13:01:13.089Z,25.70
2018-05-23T13:03:40.082Z,25.00
2018-05-23T13:06:06.297Z,24.90
2018-05-23T13:08:32.498Z,24.60
2018-05-23T13:10:59.542Z,24.30
2018-05-23T13:13:25.861Z,24.20
2018-05-23T13:15:52.994Z,24.40
2018-05-23T13:18:19.237Z,24.30
2018-05-23T13:20:45.509Z,24.50
2018-05-23T13:23:12.616Z,24.50
2018-05-23T13:25:38.863Z,24.40
2018-05-23T13:28:05.127Z,24.30
2018-05-23T13:30:31.503Z,24.30
2018-05-23T13:32:57.733Z,24.40
2018-05-23T13:35:24.756Z,25.00
2018-05-23T13:37:51.736Z,25.50
2018-05-23T13:40:18.067Z,25.40
2018-05-23T13:42:44.614Z,26.00
2018-05-23T13:45:11.254Z,26.10
2018-05-23T13:47:37.664Z,26.00
2018-05-23T13:50:04.095Z,26.30
2018-05-23T13:52:31.564Z,26.30
2018-05-23T13:54:58.264Z,26.30
2018-05-23T13:57:24.970Z,26.60
2018-05-23T13:59:51.373Z,26.80
2018-05-23T14:02:18.698Z,26.50
2018-05-23T14:04:45.106Z,26.40
2018-05-23T14:07:11.403Z,26.00
2018-05-23T14:09:37.900Z,25.50
2018-05-23T14:12:04.598Z,25.20
2018-05-23T14:14:31.115Z,25.10
2018-05-23T14:16:57.386Z,25.10
2018-05-23T14:19:24.480Z,24.60
2018-05-23T14:21:52.262Z,24.10
2018-05-23T14:24:18.587Z,24.10
2018-05-23T14:26:44.870Z,23.90
2018-05-23T14:29:11.875Z,23.50
2018-05-23T14:31:38.166Z,23.40
2018-05-23T14:34:05.183Z,23.70
2018-05-23T14:36:31.374Z,23.70
2018-05-23T14:38:57.619Z,24.00
2018-05-23T14:41:23.913Z,24.20
2018-05-23T14:43:50.929Z,24.40
2018-05-23T14:46:17.870Z,24.40
2018-05-23T14:48:44.190Z,24.50
2018-05-23T14:51:10.431Z,24.60
2018-05-23T14:53:36.879Z,24.50
2018-05-23T14:56:03.113Z,24.60
2018-05-23T14:58:29.404Z,24.80
2018-05-23T15:00:55.750Z,24.90
2018-05-23T15:03:22.081Z,25.00
2018-05-23T15:05:48.319Z,25.60
2018-05-23T15:08:14.639Z,25.80
2018-05-23T15:10:41.585Z,25.90
2018-05-23T15:13:08.539Z,25.80
2018-05-23T15:15:35.501Z,25.60
2018-05-23T15:18:01.754Z,25.60
2018-05-23T15:20:28.069Z,25.50
2018-05-23T15:22:54.407Z,25.30
2018-05-23T15:25:24.532Z,24.80
2018-05-23T15:27:51.007Z,24.70
2018-05-23T15:30:17.310Z,24.40
2018-05-23T15:32:44.823Z,24.20
2018-05-23T15:35:11.360Z,24.10
2018-05-23T15:37:38.488Z,23.70
2018-05-23T15:40:04.855Z,23.70
2018-05-23T15:42:32.602Z,23.40
2018-05-23T15:44:58.903Z,23.40
2018-05-23T15:47:25.202Z,23.30
2018-05-23T15:49:52.275Z,23.20
2018-05-23T15:52:19.318Z,23.10
2018-05-23T15:54:45.675Z,23.10
2018-05-23T15:57:12.006Z,23.10
2018-05-23T15:59:38.290Z,23.10
2018-05-23T16:02:04.647Z,23.20
2018-05-23T16:04:31.697Z,23.50
2018-05-23T16:06:57.977Z,23.50
2018-05-23T16:09:24.314Z,23.70
2018-05-23T16:11:50.576Z,24.00
2018-05-23T16:14:16.860Z,24.10
2018-05-23T16:16:43.866Z,24.00
2018-05-23T16:19:10.082Z,24.00
2018-05-23T16:21:36.360Z,23.80
2018-05-23T16:24:03.400Z,23.30
2018-05-23T16:26:30.370Z,23.10
2018-05-23T16:28:56.604Z,23.00
2018-05-23T16:31:23.596Z,23.10
2018-05-23T16:33:49.802Z,23.00
2018-05-23T16:36:17.113Z,22.90
2018-05-23T16:38:43.353Z,22.80
2018-05-23T16:41:09.531Z,22.90
2018-05-23T16:43:35.824Z,22.80
2018-05-23T16:46:02.078Z,22.80
2018-05-23T16:48:29.064Z,23.20
2018-05-23T16:50:55.577Z,23.10
2018-05-23T16:53:21.839Z,23.30
2018-05-23T16:55:48.117Z,23.20
2018-05-23T16:58:15.808Z,22.90
2018-05-23T17:00:42.789Z,22.90
2018-05-23T17:03:09.022Z,22.90
2018-05-23T17:05:35.255Z,22.90
2018-05-23T17:08:01.467Z,23.00
2018-05-23T17:10:28.433Z,23.40
2018-05-23T17:12:54.838Z,23.30
2018-05-23T17:15:21.153Z,23.50
2018-05-23T17:17:47.575Z,23.60
2018-05-23T17:20:14.223Z,23.70
2018-05-23T17:22:40.685Z,24.00
2018-05-23T17:25:07.007Z,24.00
2018-05-23T17:27:33.257Z,24.30
2018-05-23T17:29:59.491Z,24.50
2018-05-23T17:32:25.738Z,24.70
2018-05-23T17:34:53.070Z,25.20
2018-05-23T17:37:21.129Z,25.20
2018-05-23T17:39:48.691Z,25.40
2018-05-23T17:45:05.513Z,25.70
2018-05-23T17:47:32.540Z,25.80
2018-05-23T17:50:00.743Z,25.80
2018-05-23T17:52:27.169Z,25.40
2018-05-23T17:54:53.929Z,24.40
2018-05-23T17:57:20.422Z,23.20
2018-05-23T17:59:46.771Z,23.00
2018-05-23T18:02:13.219Z,22.60
2018-05-23T18:04:39.792Z,22.80
2018-05-23T18:07:06.051Z,22.50
2018-05-23T18:09:32.291Z,22.00
2018-05-23T18:11:58.533Z,21.70
2018-05-23T18:14:25.565Z,21.60
2018-05-23T18:16:51.896Z,21.50
2018-05-23T18:19:18.278Z,21.60
2018-05-23T18:21:44.612Z,21.60
2018-05-23T18:24:10.872Z,21.50
2018-05-23T18:26:37.097Z,21.30
2018-05-23T18:29:03.308Z,21.00
2018-05-23T18:31:30.222Z,20.40
2018-05-23T18:33:56.410Z,20.40
2018-05-23T18:36:22.599Z,20.30
2018-05-23T18:38:48.790Z,20.00
2018-05-23T18:41:14.994Z,19.60
2018-05-23T18:43:41.180Z,19.30
2018-05-23T18:46:07.377Z,19.40
2018-05-23T18:48:33.553Z,19.30
2018-05-23T18:50:59.733Z,19.20
2018-05-23T18:53:25.918Z,19.00
2018-05-23T18:55:52.286Z,18.70
2018-05-23T18:58:18.506Z,18.40
2018-05-23T19:00:45.454Z,18.00
2018-05-23T19:03:12.378Z,18.00
2018-05-23T19:05:38.548Z,17.90
2018-05-23T19:08:04.754Z,17.90
2018-05-23T19:10:30.949Z,18.00
2018-05-23T19:12:57.134Z,17.90
2018-05-23T19:15:23.342Z,17.70
2018-05-23T19:17:49.526Z,17.60
2018-05-23T19:20:15.707Z,17.40
2018-05-23T19:22:41.913Z,17.30
2018-05-23T19:25:08.076Z,17.20
2018-05-23T19:27:34.277Z,17.00
2018-05-23T19:30:00.462Z,16.90
2018-05-23T19:32:27.378Z,16.70
2018-05-23T19:34:54.326Z,16.50
2018-05-23T19:37:20.533Z,16.50
2018-05-23T19:39:46.788Z,16.40
2018-05-23T19:42:13.683Z,16.20
2018-05-23T19:44:41.505Z,16.10
2018-05-23T19:47:07.694Z,16.00
2018-05-23T19:49:34.635Z,15.70
2018-05-23T19:52:01.563Z,15.50
2018-05-23T19:54:27.805Z,15.50
2018-05-23T19:56:53.986Z,15.40
2018-05-23T19:59:20.324Z,15.30
2018-05-23T20:01:46.500Z,15.10
2018-05-23T20:04:12.680Z,14.90
2018-05-23T20:06:38.906Z,14.90
2018-05-23T20:09:05.072Z,14.70
2018-05-23T20:11:31.264Z,14.60
2018-05-23T20:13:58.217Z,14.30
2018-05-23T20:16:24.392Z,14.20
2018-05-23T20:18:50.573Z,14.20
2018-05-23T20:21:17.508Z,14.10
2018-05-23T20:23:44.464Z,13.90
2018-05-23T20:26:11.399Z,13.80
2018-05-23T20:28:38.349Z,13.70
2018-05-23T20:31:04.655Z,13.60
2018-05-23T20:33:30.836Z,13.60
2018-05-23T20:35:57.781Z,13.50
2018-05-23T20:38:24.697Z,13.40
2018-05-23T20:40:50.899Z,13.30
2018-05-23T20:43:17.066Z,13.30
2018-05-23T20:45:43.299Z,13.30
2018-05-23T20:48:09.491Z,13.20
2018-05-23T20:50:35.694Z,13.10
2018-05-23T20:53:02.647Z,12.90
2018-05-23T20:55:28.878Z,12.80
2018-05-23T20:57:56.550Z,12.60
2018-05-23T21:00:23.469Z,12.60
2018-05-23T21:02:49.653Z,12.50
2018-05-23T21:05:15.942Z,12.40
2018-05-23T21:07:42.831Z,12.20
2018-05-23T21:10:09.021Z,12.10
2018-05-23T21:12:35.199Z,12.10
2018-05-23T21:15:01.388Z,12.10
2018-05-23T21:17:27.573Z,12.00
2018-05-23T21:19:53.757Z,11.90
2018-05-23T21:22:19.928Z,11.80
2018-05-23T21:24:46.127Z,11.70
2018-05-23T21:27:13.062Z,11.40
2018-05-23T21:29:39.244Z,11.30
2018-05-23T21:32:05.439Z,11.30
2018-05-23T21:34:31.657Z,11.20
2018-05-23T21:36:57.847Z,11.10
2018-05-23T21:39:24.013Z,11.10
2018-05-23T21:41:50.186Z,10.90
2018-05-23T21:44:17.133Z,10.60
2018-05-23T21:46:44.040Z,10.50
2018-05-23T21:49:10.243Z,10.50
2018-05-23T21:51:36.425Z,10.40
2018-05-23T21:54:02.598Z,10.30
2018-05-23T21:56:29.538Z,10.10
2018-05-23T21:58:56.445Z,10.10
2018-05-23T22:01:22.650Z,10.00
2018-05-23T22:03:48.821Z,9.90
2018-05-23T22:06:15.037Z,9.80
2018-05-23T22:08:41.227Z,9.80
2018-05-23T22:11:07.490Z,9.80
2018-05-23T22:13:33.640Z,9.70
2018-05-23T22:15:59.814Z,9.70
2018-05-23T22:18:26.781Z,9.60
2018-05-23T22:20:52.966Z,9.50
2018-05-23T22:23:19.148Z,9.50
2018-05-23T22:25:45.311Z,9.40
2018-05-23T22:28:11.574Z,9.40
2018-05-23T22:30:37.789Z,9.30
2018-05-23T22:33:04.651Z,9.00
2018-05-23T22:35:30.853Z,8.90
2018-05-23T22:37:57.039Z,8.90
2018-05-23T22:40:23.938Z,8.60
2018-05-23T22:42:50.121Z,8.60
2018-05-23T22:45:17.045Z,8.50
2018-05-23T22:47:43.264Z,8.40
2018-05-23T22:50:09.425Z,8.50
2018-05-23T22:52:36.334Z,8.50
2018-05-23T22:55:02.537Z,8.40
2018-05-23T22:57:28.717Z,8.40
2018-05-23T22:59:54.901Z,8.30
2018-05-23T23:02:21.097Z,8.30
2018-05-23T23:04:47.261Z,8.20
2018-05-23T23:07:13.449Z,8.10
2018-05-23T23:09:39.609Z,8.00
2018-05-23T23:12:06.552Z,8.20
2018-05-23T23:14:33.470Z,8.40
2018-05-23T23:16:59.938Z,8.30
2018-05-23T23:19:26.861Z,8.40
2018-05-23T23:21:53.058Z,8.40
2018-05-23T23:24:19.262Z,8.40
2018-05-23T23:26:46.191Z,8.10
2018-05-23T23:29:12.370Z,8.00
2018-05-23T23:31:38.564Z,8.00
2018-05-23T23:34:04.742Z,8.00
2018-05-23T23:36:30.942Z,7.90
2018-05-23T23:38:57.854Z,7.80
2018-05-23T23:41:24.043Z,7.70
2018-05-23T23:43:50.227Z,7.70
2018-05-23T23:46:16.393Z,7.70
2018-05-23T23:48:43.354Z,7.40
2018-05-23T23:51:09.537Z,7.40
2018-05-23T23:53:35.700Z,7.30
2018-05-23T23:56:02.609Z,7.20
2018-05-23T23:58:28.809Z,7.10
